R/v Auk — NOAA — position and weather

sailwx.info

Track history (hours):
 
Tides and Currents Weather Stations Pressure Air Temp Water Temp Dewpoint Dewpoint Depression Visibility Wind Speed Wind Dir Waves Ship Positions

R/v Auk

Last reported at 2017-Oct-17 19:57 UTC. Time now 2017-Oct-18 18:42 UTC.
Position N 42°19' W 070°45'.

Length 15 m; draft 1.7 m.

Type: Ship. MMSI: 369871000.

Date/timePositionNaut miles runAvg speedWind from/ knotsBaromVisibWave heightAir tempDewpointWater temp
2017-Oct-17 19:57N 42°19' W 070°45'510.3
2017-Oct-17 19:28N 42°23' W 070°47'0 0.6
2017-Oct-17 19:00N 42°23' W 070°48'2 4.0
2017-Oct-17 18:30N 42°24' W 070°45'0 0.5
2017-Oct-17 18:01N 42°24' W 070°45'0 0.2
2017-Oct-17 17:30N 42°24' W 070°45'1 2.2
2017-Oct-17 17:00N 42°23' W 070°47'0 0.6
2017-Oct-17 16:29N 42°23' W 070°47'2 3.1
2017-Oct-17 15:57N 42°22' W 070°49'0 0.6
2017-Oct-17 15:30N 42°22' W 070°49'  
2017-Oct-14 18:39N 42°16' W 070°39'214.0
2017-Oct-14 18:30N 42°18' W 070°38'714.1
2017-Oct-14 18:00N 42°25' W 070°34'2 3.4
2017-Oct-14 17:30N 42°26' W 070°33'511.0
2017-Oct-14 17:01N 42°27' W 070°25'611.1
2017-Oct-14 16:30N 42°28' W 070°18'2 4.5
2017-Oct-14 16:00N 42°28' W 070°15'612.8
2017-Oct-14 15:31N 42°24' W 070°21'815.0
2017-Oct-14 14:58N 42°19' W 070°30'14 0.8
2017-Oct-13 19:54N 42°18' W 070°50'4 9.8
2017-Oct-13 19:31N 42°19' W 070°55'0 0.5
2017-Oct-13 19:00N 42°19' W 070°54'4 8.0
2017-Oct-13 18:30N 42°20' W 070°60'1 2.6
2017-Oct-13 18:00N 42°21' W 071°01'1 2.7
2017-Oct-13 17:30N 42°21' W 071°02'1 1.8
2017-Oct-13 17:00N 42°22' W 071°03'0 0.1
2017-Oct-13 16:31N 42°22' W 071°03'4 8.6
2017-Oct-13 16:00N 42°20' W 070°58'1 2.2
2017-Oct-13 15:31N 42°20' W 070°56'0 0.2
2017-Oct-13 15:00N 42°20' W 070°56'3 5.9
2017-Oct-13 14:31N 42°19' W 070°53'  
Track history (hours):
 
Tides and Currents Weather Stations Pressure Air Temp Water Temp Dewpoint Dewpoint Depression Visibility Wind Speed Wind Dir Waves Ship Positions

R/v Auk

Last reported at 2017-Oct-17 19:57 UTC. Time now 2017-Oct-18 18:42 UTC.
Position N 42°19' W 070°45'.

Length 15 m; draft 1.7 m.

Type: Ship. MMSI: 369871000.

Date/timePositionNaut miles runAvg speedWind from/ knotsBaromVisibWave heightAir tempDewpointWater temp
2017-Oct-17 19:57N 42°19' W 070°45'510.3
2017-Oct-17 19:28N 42°23' W 070°47'0 0.6
2017-Oct-17 19:00N 42°23' W 070°48'2 4.0
2017-Oct-17 18:30N 42°24' W 070°45'0 0.5
2017-Oct-17 18:01N 42°24' W 070°45'0 0.2
2017-Oct-17 17:30N 42°24' W 070°45'1 2.2
2017-Oct-17 17:00N 42°23' W 070°47'0 0.6
2017-Oct-17 16:29N 42°23' W 070°47'2 3.1
2017-Oct-17 15:57N 42°22' W 070°49'0 0.6
2017-Oct-17 15:30N 42°22' W 070°49'  
2017-Oct-14 18:39N 42°16' W 070°39'214.0
2017-Oct-14 18:30N 42°18' W 070°38'714.1
2017-Oct-14 18:00N 42°25' W 070°34'2 3.4
2017-Oct-14 17:30N 42°26' W 070°33'511.0
2017-Oct-14 17:01N 42°27' W 070°25'611.1
2017-Oct-14 16:30N 42°28' W 070°18'2 4.5
2017-Oct-14 16:00N 42°28' W 070°15'612.8
2017-Oct-14 15:31N 42°24' W 070°21'815.0
2017-Oct-14 14:58N 42°19' W 070°30'14 0.8
2017-Oct-13 19:54N 42°18' W 070°50'4 9.8
2017-Oct-13 19:31N 42°19' W 070°55'0 0.5
2017-Oct-13 19:00N 42°19' W 070°54'4 8.0
2017-Oct-13 18:30N 42°20' W 070°60'1 2.6
2017-Oct-13 18:00N 42°21' W 071°01'1 2.7
2017-Oct-13 17:30N 42°21' W 071°02'1 1.8
2017-Oct-13 17:00N 42°22' W 071°03'0 0.1
2017-Oct-13 16:31N 42°22' W 071°03'4 8.6
2017-Oct-13 16:00N 42°20' W 070°58'1 2.2
2017-Oct-13 15:31N 42°20' W 070°56'0 0.2
2017-Oct-13 15:00N 42°20' W 070°56'3 5.9
2017-Oct-13 14:31N 42°19' W 070°53'  

Dump ship's entire track history